Idaho Falls, ID (83401)

10:57 AM MDT on July 30, 2016 (GMT -0600)
Idaho Falls - East Lincoln Road/50th | | Change Station
Active Advisory: Fire Weather Watch

Elev 4767 ft 43.51 °N, 111.94 °W | Updated 18 seconds ago

Clear
Clear
83.5 °F
Feels Like 81 °F
N
0.4
Wind Variable Wind from NNW
Gusts 2.5 mph

Today
High -- | Low -- °F
--% Chance of Precip.
Yesterday
High -- | Low -- °F
Precip. -- in
Pressure 29.81 in
Visibility 8.0 miles
Clouds Clear
Heat Index 81 °F
Dew Point 47 °F
Humidity 28%
Rainfall 0.00 in
Snow Depth Not available.
6:15 AM 8:51 PM
Waning Crescent, 12% visible
METAR KIDA 301653Z VRB03KT 8SM CLR 28/07 A2998 RMK AO2 SLP092 FU ALQDS T02780072
Pressure 29.81 in
Visibility 8.0 miles
Clouds Clear
Heat Index 81 °F
Dew Point 47 °F
Humidity 28%
Rainfall 0.00 in
Snow Depth Not available.
6:15 AM 8:51 PM
Waning Crescent, 12% visible
METAR KIDA 301653Z VRB03KT 8SM CLR 28/07 A2998 RMK AO2 SLP092 FU ALQDS T02780072

10-Day Weather Forecast

Almanac

Astronomy

Jul. 30, 2016 Rise Set
Actual Time
Civil Twilight
Nautical Twilight
Astronomical Twilight
Moon
Length of Visible Light
Length of Day
Tomorrow will be .
, % of the Moon is Illuminated

Today's Extremes

State Highs State Lows

Community

WunderPhotos

Upload Photos

1,928,597 photos uploaded!

WunderBlog® & News

Nearby

Air Quality

  Air Quality AQ Index Pollutant
Not available.

Snow Depth

Station Depth Elevation

Earthquake Activity

City Distance Mag. Time & Date
Minimum magnitude displayed is 2.5.

Coastal Water Temperatures

Place Temperature

Stations

Nearby Weather Stations

Station Location Temp. Windchill Dew Point Humidity Wind Precip. Elev Updated Type
                   

Watches & Warnings

Fire Weather Watch
Issued: 3:59 AM MDT Jul. 30, 2016 – National Weather Service

... Fire Weather Watch in effect from Sunday afternoon through
Sunday evening for for strong gusty winds and low humidities in
the upper snake plain of southeast Idaho... zone 410...

The National Weather Service in Pocatello has issued a Fire
Weather Watch... which is in effect from Sunday afternoon through
Sunday evening.

* Affected area... fire weather zone 410.

* Wind... southwest 15 to 20 mph with gusts to 35 mph.

* Humidity... 8 to 13 percent.

* Impacts... any fires that develop will likely spread rapidly.
Outdoor burning is not recommended.

Precautionary/preparedness actions...

A Fire Weather Watch means that critical fire weather conditions
are forecast to occur. Listen for later forecasts and possible
red flag warnings.